Terminal Aerodrome Forecast
Issued by NWS Duluth, MN

Home | Current Version | Previous Version | Text Only | Print | Product List | Glossary On
Versions: 1 2 3 4 5 6 7 8 9 10 11 12 13 14 15 16 17
000
FTUS43 KDLH 280526
TAFDLH
TAF
KDLH 280526Z 2806/2906 12004KT P6SM FEW050
     FM281500 16015KT P6SM VCSH OVC100
     FM281800 18012G20KT P6SM VCTS BKN100CB
      TEMPO 2818/2822 4SM TSRA OVC050CB
     FM290200 17012G21KT P6SM VCSH BKN050=

USA.gov is the U.S. government's official web portal to all federal, state and local government web resources and services.